createdAt,value
2022-08-21T00:01:54.122Z,0.63
2022-08-21T00:04:22.750Z,0.50
2022-08-21T00:06:58.411Z,0.73
2022-08-21T00:09:25.944Z,0.60
2022-08-21T00:11:53.498Z,0.50
2022-08-21T00:14:21.106Z,0.70
2022-08-21T00:16:49.243Z,0.70
2022-08-21T00:24:07.720Z,0.45
2022-08-21T00:26:35.518Z,0.70
2022-08-21T00:29:05.004Z,0.70
2022-08-21T00:31:32.716Z,0.37
2022-08-21T00:34:00.742Z,0.50
2022-08-21T00:36:29.820Z,0.30
2022-08-21T00:38:58.156Z,0.40
2022-08-21T00:41:37.438Z,0.38
2022-08-21T00:44:09.116Z,0.40
2022-08-21T00:46:37.388Z,0.40
2022-08-21T00:49:06.991Z,0.50
2022-08-21T00:51:40.993Z,0.47
2022-08-21T00:54:18.385Z,0.43
2022-08-21T00:56:53.972Z,0.40
2022-08-21T00:59:24.405Z,0.30
2022-08-21T01:01:53.320Z,0.30
2022-08-21T01:04:22.273Z,0.50
2022-08-21T01:06:50.031Z,0.30
2022-08-21T01:09:17.973Z,0.30
2022-08-21T01:11:46.511Z,0.40
2022-08-21T01:14:15.155Z,0.40
2022-08-21T01:16:46.810Z,0.68
2022-08-21T01:19:15.652Z,0.73
2022-08-21T01:21:44.085Z,0.23
2022-08-21T01:24:12.861Z,0.40
2022-08-21T01:26:40.844Z,0.73
2022-08-21T01:29:23.730Z,0.50
2022-08-21T01:31:51.641Z,0.40
2022-08-21T01:34:19.499Z,0.30
2022-08-21T01:36:48.287Z,0.30
2022-08-21T01:39:16.666Z,0.30
2022-08-21T01:41:44.427Z,0.30
2022-08-21T01:44:12.096Z,0.30
2022-08-21T01:46:39.835Z,0.37
2022-08-21T01:49:07.523Z,0.30
2022-08-21T01:51:35.186Z,0.30
2022-08-21T01:54:03.428Z,0.20
2022-08-21T01:56:38.296Z,0.40
2022-08-21T01:59:07.188Z,0.33
2022-08-21T02:01:34.814Z,0.28
2022-08-21T02:04:02.732Z,0.50
2022-08-21T02:06:30.324Z,0.40
2022-08-21T02:08:57.903Z,0.45
2022-08-21T02:11:25.963Z,0.30
2022-08-21T02:13:53.596Z,0.50
2022-08-21T02:16:21.194Z,0.28
2022-08-21T02:18:49.018Z,0.30
2022-08-21T02:21:16.903Z,0.50
2022-08-21T02:23:44.868Z,0.20
2022-08-21T02:26:13.073Z,0.43
2022-08-21T02:28:40.675Z,0.60
2022-08-21T02:31:08.474Z,0.30
2022-08-21T02:33:36.057Z,0.30
2022-08-21T02:36:05.436Z,0.30
2022-08-21T02:38:35.612Z,0.50
2022-08-21T02:41:03.191Z,0.30
2022-08-21T02:43:30.748Z,0.40
2022-08-21T02:45:59.573Z,0.40
2022-08-21T02:48:31.902Z,0.60
2022-08-21T02:51:06.194Z,0.30
2022-08-21T02:53:35.263Z,0.40
2022-08-21T02:56:07.286Z,0.40
2022-08-21T02:58:39.524Z,0.50
2022-08-21T03:01:10.500Z,0.60
2022-08-21T03:03:40.492Z,0.43
2022-08-21T03:06:10.104Z,0.45
2022-08-21T03:08:38.710Z,0.45
2022-08-21T03:11:07.712Z,0.40
2022-08-21T03:13:38.290Z,0.47
2022-08-21T03:16:10.110Z,0.32
2022-08-21T03:18:39.133Z,0.50
2022-08-21T03:21:08.233Z,1.00
2022-08-21T03:23:36.402Z,0.40
2022-08-21T03:26:05.048Z,0.60
2022-08-21T03:28:33.474Z,0.30
2022-08-21T03:31:01.476Z,0.60
2022-08-21T03:33:29.182Z,0.50
2022-08-21T03:36:04.322Z,0.63
2022-08-21T03:38:33.674Z,0.50
2022-08-21T03:41:01.690Z,0.65
2022-08-21T03:43:31.215Z,0.60
2022-08-21T03:46:03.331Z,0.60
2022-08-21T03:48:31.697Z,0.40
2022-08-21T03:50:59.404Z,0.60
2022-08-21T03:53:29.662Z,0.82
2022-08-21T03:55:57.248Z,0.47
2022-08-21T03:58:27.668Z,0.57
2022-08-21T04:01:00.579Z,0.60
2022-08-21T04:03:29.163Z,0.70
2022-08-21T04:05:56.865Z,0.50
2022-08-21T04:08:24.476Z,0.60
2022-08-21T04:10:55.082Z,0.45
2022-08-21T04:13:23.621Z,0.50
2022-08-21T04:15:51.589Z,0.97
2022-08-21T04:18:19.651Z,0.57
2022-08-21T04:20:52.293Z,0.75
2022-08-21T04:23:23.593Z,0.60
2022-08-21T04:25:54.134Z,0.40
2022-08-21T04:28:23.322Z,0.60
2022-08-21T04:30:53.157Z,0.80
2022-08-21T04:33:22.639Z,0.57
2022-08-21T04:35:51.310Z,0.50
2022-08-21T04:38:19.903Z,0.60
2022-08-21T04:40:49.690Z,0.50
2022-08-21T04:43:17.528Z,0.60
2022-08-21T04:45:48.727Z,1.00
2022-08-21T04:48:20.151Z,0.43
2022-08-21T04:51:08.953Z,0.43
2022-08-21T04:53:42.370Z,0.70
2022-08-21T04:56:13.853Z,0.85
2022-08-21T04:58:43.464Z,0.60
2022-08-21T05:01:18.653Z,0.60
2022-08-21T05:03:50.039Z,0.47
2022-08-21T05:06:17.994Z,0.83
2022-08-21T05:08:48.228Z,0.45
2022-08-21T05:11:16.048Z,0.50
2022-08-21T05:13:43.981Z,0.60
2022-08-21T05:16:11.617Z,0.70
2022-08-21T05:18:39.826Z,0.50
2022-08-21T05:21:07.724Z,0.77
2022-08-21T05:23:35.234Z,0.80
2022-08-21T05:26:03.493Z,0.90
2022-08-21T05:28:32.087Z,0.85
2022-08-21T05:30:59.712Z,1.20
2022-08-21T05:33:27.244Z,0.70
2022-08-21T05:35:58.632Z,0.70
2022-08-21T05:38:28.317Z,0.77
2022-08-21T05:40:56.063Z,0.50
2022-08-21T05:43:23.713Z,0.63
2022-08-21T05:45:51.320Z,0.73
2022-08-21T05:48:22.199Z,0.57
2022-08-21T05:50:51.715Z,0.60
2022-08-21T05:53:20.783Z,0.65
2022-08-21T05:55:48.770Z,0.60
2022-08-21T05:58:19.754Z,0.98
2022-08-21T06:00:49.516Z,0.60
2022-08-21T06:03:20.579Z,0.40
2022-08-21T06:05:48.556Z,0.57
2022-08-21T06:08:17.900Z,0.50
2022-08-21T06:10:47.291Z,0.63
2022-08-21T06:13:16.692Z,0.63
2022-08-21T06:15:44.304Z,1.05
2022-08-21T06:18:12.149Z,0.50
2022-08-21T06:20:42.640Z,0.67
2022-08-21T06:23:10.401Z,0.47
2022-08-21T06:25:38.197Z,0.63
2022-08-21T06:28:11.297Z,1.17
2022-08-21T06:30:40.444Z,0.60
2022-08-21T06:33:08.325Z,0.80
2022-08-21T06:35:36.434Z,0.93
2022-08-21T06:38:04.970Z,0.60
2022-08-21T06:40:34.852Z,0.50
2022-08-21T06:43:11.446Z,0.57
2022-08-21T06:45:43.566Z,0.60
2022-08-21T06:48:14.548Z,1.45
2022-08-21T06:50:44.723Z,0.90
2022-08-21T06:53:14.629Z,0.60
2022-08-21T06:55:43.345Z,0.70
2022-08-21T06:58:11.386Z,0.80
2022-08-21T07:00:46.413Z,0.73
2022-08-21T07:03:38.598Z,0.98
2022-08-21T07:06:07.832Z,0.90
2022-08-21T07:08:36.320Z,0.80
2022-08-21T07:11:31.922Z,0.77
2022-08-21T07:14:13.039Z,0.80
2022-08-21T07:16:49.414Z,0.50
2022-08-21T07:19:17.160Z,0.70
2022-08-21T07:21:44.772Z,0.90
2022-08-21T07:24:12.423Z,0.70
2022-08-21T07:26:40.167Z,0.82
2022-08-21T07:29:08.046Z,0.80
2022-08-21T07:31:35.859Z,0.93
2022-08-21T07:34:03.661Z,0.80
2022-08-21T07:36:31.241Z,1.73
2022-08-21T07:39:01.694Z,0.70
2022-08-21T07:41:30.451Z,0.80
2022-08-21T07:44:01.118Z,1.10
2022-08-21T07:46:29.135Z,1.10
2022-08-21T07:48:56.719Z,1.07
2022-08-21T07:51:27.970Z,1.23
2022-08-21T07:53:58.856Z,1.08
2022-08-21T07:56:27.705Z,1.10
2022-08-21T07:58:55.376Z,1.17
2022-08-21T08:01:23.370Z,1.40
2022-08-21T08:03:51.291Z,1.10
2022-08-21T08:06:20.211Z,1.20
2022-08-21T08:08:48.287Z,1.30
2022-08-21T08:11:18.986Z,1.13
2022-08-21T08:13:49.681Z,1.33
2022-08-21T08:16:17.844Z,0.90
2022-08-21T08:18:46.563Z,1.15
2022-08-21T08:21:14.864Z,1.70
2022-08-21T08:23:42.460Z,1.13
2022-08-21T08:26:10.128Z,1.50
2022-08-21T08:28:37.704Z,1.23
2022-08-21T08:31:05.398Z,1.35
2022-08-21T08:33:33.253Z,1.08
2022-08-21T08:41:07.460Z,1.30
2022-08-21T08:43:35.752Z,1.20
2022-08-21T08:46:10.436Z,1.20
2022-08-21T08:49:05.924Z,1.00
2022-08-21T08:51:46.292Z,1.65
2022-08-21T08:54:22.610Z,1.60
2022-08-21T08:56:53.482Z,1.42
2022-08-21T08:59:28.234Z,1.30
2022-08-21T09:01:56.160Z,1.25
2022-08-21T09:04:28.821Z,1.25
2022-08-21T09:07:17.073Z,1.20
2022-08-21T09:10:02.604Z,1.60
2022-08-21T09:12:39.462Z,1.20
2022-08-21T09:15:18.152Z,1.30
2022-08-21T09:18:12.068Z,1.35
2022-08-21T09:20:48.118Z,1.97
2022-08-21T09:23:34.035Z,1.30
2022-08-21T09:26:15.374Z,2.42
2022-08-21T09:28:43.788Z,1.33
2022-08-21T09:31:22.843Z,1.30
2022-08-21T09:33:51.483Z,1.60
2022-08-21T09:36:46.768Z,1.60
2022-08-21T09:39:25.113Z,1.10
2022-08-21T09:42:02.384Z,1.27
2022-08-21T09:44:40.181Z,1.38
2022-08-21T09:47:09.588Z,1.40
2022-08-21T09:49:40.845Z,1.13
2022-08-21T09:52:19.813Z,1.25
2022-08-21T09:54:47.776Z,1.23
2022-08-21T09:57:46.518Z,1.60
2022-08-21T10:00:35.155Z,1.20
2022-08-21T10:03:19.725Z,1.15
2022-08-21T10:05:55.744Z,1.25
2022-08-21T10:08:25.335Z,1.50
2022-08-21T10:10:57.586Z,1.10
2022-08-21T10:13:43.119Z,1.27
2022-08-21T10:16:24.381Z,1.08
2022-08-21T10:19:07.023Z,1.23
2022-08-21T10:21:50.140Z,1.58
2022-08-21T10:24:32.124Z,1.35
2022-08-21T10:27:31.031Z,1.37
2022-08-21T10:30:06.754Z,1.60
2022-08-21T10:32:43.791Z,1.50
2022-08-21T10:35:20.470Z,1.17
2022-08-21T10:38:39.321Z,1.08
2022-08-21T10:41:07.269Z,1.60
2022-08-21T10:43:46.701Z,1.50
2022-08-21T10:46:29.216Z,1.40
2022-08-21T10:49:08.791Z,1.50
2022-08-21T10:51:48.617Z,1.13
2022-08-21T10:54:31.616Z,1.30
2022-08-21T10:57:07.317Z,1.30
2022-08-21T10:59:51.720Z,1.35
2022-08-21T11:02:43.830Z,1.83
2022-08-21T11:05:31.985Z,1.00
2022-08-21T11:08:08.027Z,1.40
2022-08-21T11:10:57.492Z,1.20
2022-08-21T11:13:52.404Z,1.40
2022-08-21T11:16:31.049Z,1.77
2022-08-21T11:19:05.361Z,1.05
2022-08-21T11:21:43.886Z,1.53
2022-08-21T11:24:32.921Z,1.40
2022-08-21T11:27:09.973Z,1.40
2022-08-21T11:29:40.746Z,1.20
2022-08-21T11:32:38.981Z,1.50
2022-08-21T11:35:25.532Z,1.40
2022-08-21T11:37:55.828Z,1.70
2022-08-21T11:40:41.944Z,1.60
2022-08-21T11:43:33.526Z,1.50
2022-08-21T11:46:37.303Z,1.80
2022-08-21T11:49:19.356Z,1.83
2022-08-21T11:52:10.100Z,1.80
2022-08-21T11:54:37.755Z,2.03
2022-08-21T11:57:15.581Z,1.40
2022-08-21T12:00:09.206Z,1.58
2022-08-21T12:02:47.021Z,2.17
2022-08-21T12:05:32.198Z,1.95
2022-08-21T12:08:13.910Z,2.22
2022-08-21T12:10:48.393Z,2.10
2022-08-21T12:13:35.714Z,2.00
2022-08-21T12:16:17.097Z,1.80
2022-08-21T12:18:44.783Z,1.63
2022-08-21T12:21:25.904Z,1.70
2022-08-21T12:24:15.304Z,1.60
2022-08-21T12:26:50.699Z,1.40
2022-08-21T12:29:26.505Z,1.60
2022-08-21T12:32:02.197Z,1.65
2022-08-21T12:34:36.153Z,1.63
2022-08-21T12:37:18.317Z,1.45
2022-08-21T12:40:42.628Z,1.40
2022-08-21T12:43:43.935Z,1.63
2022-08-21T12:46:21.934Z,1.58
2022-08-21T12:48:57.813Z,1.33
2022-08-21T12:51:49.650Z,1.40
2022-08-21T12:54:26.513Z,1.10
2022-08-21T12:57:07.358Z,1.30
2022-08-21T12:59:39.629Z,1.67
2022-08-21T13:02:19.717Z,1.40
2022-08-21T13:04:48.991Z,1.40
2022-08-21T13:07:25.672Z,1.48
2022-08-21T13:10:05.611Z,1.30
2022-08-21T13:12:34.588Z,2.95
2022-08-21T13:15:08.977Z,1.98
2022-08-21T13:17:41.040Z,1.38
2022-08-21T13:20:21.324Z,2.80
2022-08-21T13:22:49.276Z,6.10
2022-08-21T13:25:19.695Z,2.10
2022-08-21T13:28:05.632Z,1.20
2022-08-21T13:30:33.373Z,1.33
2022-08-21T13:33:12.277Z,0.98
2022-08-21T13:35:58.149Z,1.30
2022-08-21T13:38:29.175Z,1.10
2022-08-21T13:41:11.403Z,1.20
2022-08-21T13:43:39.055Z,1.30
2022-08-21T13:46:13.032Z,1.42
2022-08-21T13:48:41.382Z,1.30
2022-08-21T13:51:10.871Z,1.15
2022-08-21T13:53:47.604Z,1.10
2022-08-21T13:56:45.620Z,1.27
2022-08-21T13:59:26.805Z,1.20
2022-08-21T14:02:12.263Z,1.70
2022-08-21T14:05:07.931Z,1.25
2022-08-21T14:07:40.272Z,1.70
2022-08-21T14:10:23.276Z,1.52
2022-08-21T14:12:56.628Z,2.33
2022-08-21T14:15:29.470Z,1.20
2022-08-21T14:18:14.123Z,1.15
2022-08-21T14:20:41.862Z,1.10
2022-08-21T14:23:09.925Z,1.17
2022-08-21T14:25:43.867Z,1.10
2022-08-21T14:28:19.630Z,0.90
2022-08-21T14:30:47.951Z,1.08
2022-08-21T14:33:34.072Z,1.05
2022-08-21T14:36:03.095Z,1.38
2022-08-21T14:38:31.301Z,0.80
2022-08-21T14:41:04.355Z,0.97
2022-08-21T14:43:32.427Z,1.00
2022-08-21T14:46:01.786Z,1.40
2022-08-21T14:48:29.387Z,0.70
2022-08-21T14:51:00.532Z,0.90
2022-08-21T14:53:28.525Z,0.87
2022-08-21T14:56:08.066Z,1.20
2022-08-21T14:58:42.515Z,0.85
2022-08-21T15:01:12.978Z,0.90
2022-08-21T15:03:40.824Z,1.00
2022-08-21T15:06:09.715Z,0.97
2022-08-21T15:08:38.271Z,1.20
2022-08-21T15:11:18.537Z,0.90
2022-08-21T15:13:58.986Z,1.10
2022-08-21T15:16:29.947Z,0.80
2022-08-21T15:18:57.759Z,0.77
2022-08-21T15:21:25.418Z,0.80
2022-08-21T15:23:53.763Z,1.00
2022-08-21T15:26:23.944Z,0.82
2022-08-21T15:28:51.732Z,0.70
2022-08-21T15:31:19.299Z,0.70
2022-08-21T15:33:46.873Z,0.90
2022-08-21T15:36:14.492Z,0.80
2022-08-21T15:38:42.032Z,0.88
2022-08-21T15:41:09.574Z,0.90
2022-08-21T15:43:49.601Z,0.70
2022-08-21T15:46:19.511Z,1.10
2022-08-21T15:48:47.289Z,0.70
2022-08-21T15:51:16.084Z,0.80
2022-08-21T15:53:44.370Z,0.60
2022-08-21T15:56:37.465Z,1.20
2022-08-21T15:59:14.787Z,0.80
2022-08-21T16:01:44.917Z,0.50
2022-08-21T16:04:22.949Z,0.57
2022-08-21T16:06:54.140Z,1.02
2022-08-21T16:09:22.677Z,0.70
2022-08-21T16:11:50.618Z,0.50
2022-08-21T16:14:18.559Z,0.60
2022-08-21T16:16:46.717Z,0.70
2022-08-21T16:19:15.212Z,0.70
2022-08-21T16:21:42.796Z,0.80
2022-08-21T16:24:10.410Z,0.70
2022-08-21T16:26:38.068Z,0.75
2022-08-21T16:29:07.454Z,0.68
2022-08-21T16:31:35.152Z,0.50
2022-08-21T16:34:04.616Z,0.63
2022-08-21T16:36:32.193Z,0.77
2022-08-21T16:39:01.147Z,0.50
2022-08-21T16:41:33.458Z,0.70
2022-08-21T16:44:02.372Z,0.82
2022-08-21T16:46:33.021Z,0.80
2022-08-21T16:49:00.743Z,0.85
2022-08-21T16:51:30.369Z,1.02
2022-08-21T16:54:00.116Z,0.68
2022-08-21T16:56:28.101Z,0.70
2022-08-21T16:58:57.612Z,0.60
2022-08-21T17:01:32.111Z,0.85
2022-08-21T17:04:00.406Z,0.70
2022-08-21T17:06:28.947Z,0.70
2022-08-21T17:08:58.407Z,0.70
2022-08-21T17:11:37.262Z,0.70
2022-08-21T17:14:10.873Z,0.63
2022-08-21T17:16:40.800Z,0.65
2022-08-21T17:19:08.750Z,0.70
2022-08-21T17:21:36.358Z,0.60
2022-08-21T17:24:04.992Z,0.93
2022-08-21T17:26:33.175Z,0.73
2022-08-21T17:29:01.282Z,0.65
2022-08-21T17:31:30.072Z,0.80
2022-08-21T17:33:57.783Z,0.40
2022-08-21T17:36:28.604Z,0.77
2022-08-21T17:38:57.056Z,0.63
2022-08-21T17:41:25.311Z,0.80
2022-08-21T17:43:55.216Z,0.60
2022-08-21T17:46:26.992Z,1.00
2022-08-21T17:48:55.608Z,0.77
2022-08-21T17:51:23.479Z,0.80
2022-08-21T17:53:51.039Z,0.90
2022-08-21T17:56:19.802Z,0.80
2022-08-21T17:58:50.716Z,0.70
2022-08-21T18:01:19.715Z,0.73
2022-08-21T18:03:48.696Z,0.70
2022-08-21T18:06:17.883Z,0.65
2022-08-21T18:08:46.833Z,0.80
2022-08-21T18:11:23.405Z,0.68
2022-08-21T18:13:54.281Z,1.07
2022-08-21T18:16:23.265Z,0.80
2022-08-21T18:18:51.948Z,1.00
2022-08-21T18:21:20.399Z,0.60
2022-08-21T18:23:48.010Z,0.60
2022-08-21T18:26:28.296Z,0.80
2022-08-21T18:29:00.416Z,0.90
2022-08-21T18:31:33.798Z,0.98
2022-08-21T18:34:06.150Z,0.60
2022-08-21T18:36:33.799Z,0.80
2022-08-21T18:39:25.706Z,0.60
2022-08-21T18:41:49.728Z,0.60
2022-08-21T18:44:19.043Z,0.50
2022-08-21T18:46:55.541Z,0.60
2022-08-21T18:49:23.241Z,0.65
2022-08-21T18:51:51.023Z,0.77
2022-08-21T18:54:19.011Z,0.63
2022-08-21T18:56:47.077Z,0.90
2022-08-21T18:59:15.552Z,0.77
2022-08-21T19:01:43.757Z,0.70
2022-08-21T19:04:41.025Z,0.60
2022-08-21T19:07:04.435Z,0.95
2022-08-21T19:09:32.382Z,0.70
2022-08-21T19:12:00.057Z,1.02
2022-08-21T19:14:29.603Z,0.75
2022-08-21T19:16:57.430Z,0.80
2022-08-21T19:19:25.476Z,0.90
2022-08-21T19:21:53.148Z,1.00
2022-08-21T19:24:23.074Z,0.73
2022-08-21T19:26:55.915Z,0.70
2022-08-21T19:29:34.569Z,0.60
2022-08-21T19:32:05.584Z,0.60
2022-08-21T19:34:36.169Z,0.82
2022-08-21T19:37:05.742Z,0.80
2022-08-21T19:42:28.927Z,0.70
2022-08-21T19:44:58.680Z,0.90
2022-08-21T19:47:29.359Z,1.45
2022-08-21T19:49:59.896Z,1.17
2022-08-21T19:52:27.847Z,1.35
2022-08-21T19:54:57.361Z,1.43
2022-08-21T19:57:24.995Z,1.35
2022-08-21T19:59:52.692Z,1.15
2022-08-21T20:02:20.229Z,0.80
2022-08-21T20:04:53.528Z,1.00
2022-08-21T20:07:26.789Z,1.13
2022-08-21T20:09:55.545Z,1.27
2022-08-21T20:12:24.435Z,1.30
2022-08-21T20:14:53.263Z,1.20
2022-08-21T20:17:21.712Z,1.20
2022-08-21T20:19:54.363Z,1.40
2022-08-21T20:22:24.081Z,0.90
2022-08-21T20:24:52.003Z,0.98
2022-08-21T20:27:23.091Z,1.23
2022-08-21T20:29:51.032Z,1.00
2022-08-21T20:32:18.874Z,1.27
2022-08-21T20:34:46.605Z,1.20
2022-08-21T20:37:22.125Z,1.10
2022-08-21T20:40:11.621Z,1.23
2022-08-21T20:42:41.477Z,1.10
2022-08-21T20:45:18.801Z,1.00
2022-08-21T20:47:52.717Z,0.93
2022-08-21T20:50:33.827Z,1.20
2022-08-21T20:53:20.442Z,1.00
2022-08-21T20:55:51.193Z,1.30
2022-08-21T20:58:36.730Z,1.20
2022-08-21T21:01:07.663Z,1.15
2022-08-21T21:03:42.270Z,1.30
2022-08-21T21:06:30.910Z,1.30
2022-08-21T21:09:05.956Z,1.45
2022-08-21T21:11:56.806Z,1.40
2022-08-21T21:14:34.425Z,1.50
2022-08-21T21:17:07.027Z,1.17
2022-08-21T21:19:42.811Z,0.90
2022-08-21T21:22:14.808Z,1.42
2022-08-21T21:24:48.349Z,1.10
2022-08-21T21:27:23.358Z,1.60
2022-08-21T21:29:58.371Z,1.15
2022-08-21T21:32:28.897Z,1.00
2022-08-21T21:34:56.815Z,1.30
2022-08-21T21:37:40.826Z,1.40
2022-08-21T21:40:37.282Z,1.42
2022-08-21T21:43:07.567Z,1.40
2022-08-21T21:45:40.802Z,1.20
2022-08-21T21:48:26.719Z,1.30
2022-08-21T21:51:40.536Z,1.37
2022-08-21T21:54:26.515Z,1.40
2022-08-21T21:57:00.198Z,1.77
2022-08-21T21:59:41.355Z,1.17
2022-08-21T22:02:59.870Z,1.48
2022-08-21T22:05:41.588Z,1.40
2022-08-21T22:08:21.614Z,1.38
2022-08-21T22:11:00.371Z,1.20
2022-08-21T22:13:55.016Z,1.30
2022-08-21T22:16:23.622Z,1.85
2022-08-21T22:19:03.283Z,1.13
2022-08-21T22:21:36.739Z,1.35
2022-08-21T22:24:15.367Z,1.30
2022-08-21T22:26:49.027Z,1.38
2022-08-21T22:29:20.385Z,1.50
2022-08-21T22:32:06.836Z,1.80
2022-08-21T22:34:34.709Z,1.42
2022-08-21T22:37:10.122Z,1.30
2022-08-21T22:39:44.608Z,1.20
2022-08-21T22:42:23.717Z,1.23
2022-08-21T22:44:56.413Z,1.10
2022-08-21T22:47:47.451Z,1.33
2022-08-21T22:50:27.799Z,1.27
2022-08-21T22:53:09.450Z,1.48
2022-08-21T22:55:43.754Z,1.80
2022-08-21T22:58:20.649Z,1.73
2022-08-21T23:01:06.309Z,1.40
2022-08-21T23:03:47.968Z,1.30
2022-08-21T23:06:24.939Z,1.33
2022-08-21T23:08:54.082Z,1.45
2022-08-21T23:14:16.553Z,1.50
2022-08-21T23:16:59.695Z,1.88
2022-08-21T23:19:39.568Z,1.40
2022-08-21T23:22:47.290Z,1.30
2022-08-21T23:25:27.197Z,1.70
2022-08-21T23:28:17.066Z,1.17
2022-08-21T23:30:49.179Z,1.30
2022-08-21T23:33:31.834Z,1.45
2022-08-21T23:36:46.857Z,1.80
2022-08-21T23:39:14.378Z,1.20
2022-08-21T23:42:11.791Z,1.48
2022-08-21T23:44:48.412Z,1.55
2022-08-21T23:47:32.236Z,1.60
2022-08-21T23:50:14.724Z,1.60
2022-08-21T23:52:49.068Z,1.30
2022-08-21T23:55:37.746Z,1.60
2022-08-21T23:58:25.849Z,1.77
